sensor_id;sensor_type;location;lat;lon;timestamp;P1;durP1;ratioP1;P2;durP2;ratioP2
59410;SDS011;45215;32.610;-115.482;2022-08-24T00:01:10;23.88;;;19.63;;
59410;SDS011;45215;32.610;-115.482;2022-08-24T00:03:38;24.85;;;19.42;;
59410;SDS011;45215;32.610;-115.482;2022-08-24T00:06:06;22.70;;;18.33;;
59410;SDS011;45215;32.610;-115.482;2022-08-24T00:08:36;22.33;;;17.38;;
59410;SDS011;45215;32.610;-115.482;2022-08-24T00:11:03;21.15;;;16.92;;
59410;SDS011;45215;32.610;-115.482;2022-08-24T00:13:31;20.73;;;16.65;;
59410;SDS011;45215;32.610;-115.482;2022-08-24T00:15:58;19.35;;;15.52;;
59410;SDS011;45215;32.610;-115.482;2022-08-24T00:18:24;19.65;;;15.25;;
59410;SDS011;45215;32.610;-115.482;2022-08-24T00:20:51;18.50;;;14.30;;
59410;SDS011;45215;32.610;-115.482;2022-08-24T00:23:18;18.27;;;14.82;;
59410;SDS011;45215;32.610;-115.482;2022-08-24T00:25:44;18.08;;;14.05;;
59410;SDS011;45215;32.610;-115.482;2022-08-24T00:28:11;17.48;;;13.80;;
59410;SDS011;45215;32.610;-115.482;2022-08-24T00:30:37;14.95;;;12.30;;
59410;SDS011;45215;32.610;-115.482;2022-08-24T00:33:03;16.42;;;12.75;;
59410;SDS011;45215;32.610;-115.482;2022-08-24T00:35:29;14.57;;;12.02;;
59410;SDS011;45215;32.610;-115.482;2022-08-24T00:37:56;14.05;;;11.27;;
59410;SDS011;45215;32.610;-115.482;2022-08-24T00:40:24;13.20;;;10.82;;
59410;SDS011;45215;32.610;-115.482;2022-08-24T00:42:53;13.48;;;10.55;;
59410;SDS011;45215;32.610;-115.482;2022-08-24T00:45:21;13.02;;;10.40;;
59410;SDS011;45215;32.610;-115.482;2022-08-24T00:47:51;12.40;;;9.68;;
59410;SDS011;45215;32.610;-115.482;2022-08-24T00:53:18;10.20;;;9.05;;
59410;SDS011;45215;32.610;-115.482;2022-08-24T00:55:50;10.82;;;8.40;;
59410;SDS011;45215;32.610;-115.482;2022-08-24T00:58:21;10.93;;;9.25;;
59410;SDS011;45215;32.610;-115.482;2022-08-24T01:03:24;9.13;;;8.02;;
59410;SDS011;45215;32.610;-115.482;2022-08-24T01:05:52;8.88;;;7.57;;
59410;SDS011;45215;32.610;-115.482;2022-08-24T01:08:18;7.93;;;7.00;;
59410;SDS011;45215;32.610;-115.482;2022-08-24T01:11:06;7.95;;;6.82;;
59410;SDS011;45215;32.610;-115.482;2022-08-24T01:13:36;8.63;;;6.97;;
59410;SDS011;45215;32.610;-115.482;2022-08-24T01:16:04;7.97;;;6.63;;
59410;SDS011;45215;32.610;-115.482;2022-08-24T01:18:32;8.77;;;6.95;;
59410;SDS011;45215;32.610;-115.482;2022-08-24T01:23:48;7.38;;;6.03;;
59410;SDS011;45215;32.610;-115.482;2022-08-24T01:26:24;7.72;;;5.60;;
59410;SDS011;45215;32.610;-115.482;2022-08-24T01:28:59;7.80;;;6.15;;
59410;SDS011;45215;32.610;-115.482;2022-08-24T01:31:32;6.63;;;5.55;;
59410;SDS011;45215;32.610;-115.482;2022-08-24T01:33:58;5.85;;;5.22;;
59410;SDS011;45215;32.610;-115.482;2022-08-24T01:39:05;6.55;;;5.22;;
59410;SDS011;45215;32.610;-115.482;2022-08-24T01:41:39;5.82;;;4.70;;
59410;SDS011;45215;32.610;-115.482;2022-08-24T01:44:05;5.63;;;4.35;;
59410;SDS011;45215;32.610;-115.482;2022-08-24T01:46:33;5.65;;;4.65;;
59410;SDS011;45215;32.610;-115.482;2022-08-24T01:48:59;9.32;;;6.30;;
59410;SDS011;45215;32.610;-115.482;2022-08-24T01:51:29;14.13;;;9.60;;
59410;SDS011;45215;32.610;-115.482;2022-08-24T01:54:00;19.08;;;13.23;;
59410;SDS011;45215;32.610;-115.482;2022-08-24T01:56:27;30.17;;;18.60;;
59410;SDS011;45215;32.610;-115.482;2022-08-24T01:58:55;32.15;;;21.45;;
59410;SDS011;45215;32.610;-115.482;2022-08-24T02:01:21;35.30;;;22.17;;
59410;SDS011;45215;32.610;-115.482;2022-08-24T02:03:48;37.08;;;23.60;;
59410;SDS011;45215;32.610;-115.482;2022-08-24T02:06:14;47.97;;;24.33;;
59410;SDS011;45215;32.610;-115.482;2022-08-24T02:08:42;111.65;;;31.17;;
59410;SDS011;45215;32.610;-115.482;2022-08-24T02:11:09;56.88;;;28.35;;
59410;SDS011;45215;32.610;-115.482;2022-08-24T02:13:39;52.97;;;29.30;;
59410;SDS011;45215;32.610;-115.482;2022-08-24T02:16:06;52.67;;;28.98;;
59410;SDS011;45215;32.610;-115.482;2022-08-24T02:18:33;54.05;;;29.65;;
59410;SDS011;45215;32.610;-115.482;2022-08-24T02:21:00;54.22;;;28.75;;
59410;SDS011;45215;32.610;-115.482;2022-08-24T02:23:27;45.60;;;28.25;;
59410;SDS011;45215;32.610;-115.482;2022-08-24T02:25:54;46.78;;;28.85;;
59410;SDS011;45215;32.610;-115.482;2022-08-24T02:28:20;47.33;;;29.17;;
59410;SDS011;45215;32.610;-115.482;2022-08-24T02:30:47;43.88;;;26.90;;
59410;SDS011;45215;32.610;-115.482;2022-08-24T02:33:14;44.22;;;27.38;;
59410;SDS011;45215;32.610;-115.482;2022-08-24T02:35:40;43.53;;;27.45;;
59410;SDS011;45215;32.610;-115.482;2022-08-24T02:38:07;42.17;;;26.75;;
59410;SDS011;45215;32.610;-115.482;2022-08-24T02:40:34;41.00;;;25.15;;
59410;SDS011;45215;32.610;-115.482;2022-08-24T02:43:02;40.40;;;25.15;;
59410;SDS011;45215;32.610;-115.482;2022-08-24T02:45:30;40.55;;;24.77;;
59410;SDS011;45215;32.610;-115.482;2022-08-24T02:47:56;41.85;;;24.35;;
59410;SDS011;45215;32.610;-115.482;2022-08-24T02:50:23;37.38;;;23.52;;
59410;SDS011;45215;32.610;-115.482;2022-08-24T02:52:51;37.53;;;23.35;;
59410;SDS011;45215;32.610;-115.482;2022-08-24T02:55:18;32.90;;;21.58;;
59410;SDS011;45215;32.610;-115.482;2022-08-24T02:57:44;33.05;;;20.98;;
59410;SDS011;45215;32.610;-115.482;2022-08-24T03:00:12;30.25;;;19.67;;
59410;SDS011;45215;32.610;-115.482;2022-08-24T03:02:40;29.58;;;19.25;;
59410;SDS011;45215;32.610;-115.482;2022-08-24T03:05:07;30.10;;;18.75;;
59410;SDS011;45215;32.610;-115.482;2022-08-24T03:07:34;28.15;;;18.27;;
59410;SDS011;45215;32.610;-115.482;2022-08-24T03:10:01;28.30;;;18.17;;
59410;SDS011;45215;32.610;-115.482;2022-08-24T03:12:28;25.65;;;17.85;;
59410;SDS011;45215;32.610;-115.482;2022-08-24T03:14:54;24.42;;;16.70;;
59410;SDS011;45215;32.610;-115.482;2022-08-24T03:17:20;22.73;;;15.80;;
59410;SDS011;45215;32.610;-115.482;2022-08-24T03:19:48;24.08;;;15.98;;
59410;SDS011;45215;32.610;-115.482;2022-08-24T03:22:15;19.98;;;14.10;;
59410;SDS011;45215;32.610;-115.482;2022-08-24T03:24:41;21.38;;;14.07;;
59410;SDS011;45215;32.610;-115.482;2022-08-24T03:27:07;19.77;;;13.75;;
59410;SDS011;45215;32.610;-115.482;2022-08-24T03:29:34;20.15;;;13.27;;
59410;SDS011;45215;32.610;-115.482;2022-08-24T03:32:00;18.65;;;13.07;;
59410;SDS011;45215;32.610;-115.482;2022-08-24T03:34:27;19.05;;;12.55;;
59410;SDS011;45215;32.610;-115.482;2022-08-24T03:36:53;17.30;;;11.52;;
59410;SDS011;45215;32.610;-115.482;2022-08-24T03:39:19;16.98;;;11.18;;
59410;SDS011;45215;32.610;-115.482;2022-08-24T03:41:45;18.67;;;11.25;;
59410;SDS011;45215;32.610;-115.482;2022-08-24T03:44:11;16.52;;;11.10;;
59410;SDS011;45215;32.610;-115.482;2022-08-24T03:46:38;13.73;;;10.23;;
59410;SDS011;45215;32.610;-115.482;2022-08-24T03:49:05;14.05;;;9.90;;
59410;SDS011;45215;32.610;-115.482;2022-08-24T03:51:34;14.98;;;9.38;;
59410;SDS011;45215;32.610;-115.482;2022-08-24T03:54:02;13.90;;;9.55;;
59410;SDS011;45215;32.610;-115.482;2022-08-24T03:56:30;12.48;;;9.13;;
59410;SDS011;45215;32.610;-115.482;2022-08-24T03:58:56;10.52;;;8.15;;
59410;SDS011;45215;32.610;-115.482;2022-08-24T04:01:22;14.98;;;8.65;;
59410;SDS011;45215;32.610;-115.482;2022-08-24T04:03:48;12.20;;;8.75;;
59410;SDS011;45215;32.610;-115.482;2022-08-24T04:06:16;10.90;;;7.75;;
59410;SDS011;45215;32.610;-115.482;2022-08-24T04:08:43;15.82;;;7.90;;
59410;SDS011;45215;32.610;-115.482;2022-08-24T04:11:13;16.08;;;7.60;;
59410;SDS011;45215;32.610;-115.482;2022-08-24T04:13:51;17.65;;;11.80;;
59410;SDS011;45215;32.610;-115.482;2022-08-24T04:16:20;21.77;;;14.52;;
59410;SDS011;45215;32.610;-115.482;2022-08-24T04:18:48;19.42;;;14.50;;
59410;SDS011;45215;32.610;-115.482;2022-08-24T04:21:15;17.17;;;13.90;;
59410;SDS011;45215;32.610;-115.482;2022-08-24T04:23:50;17.63;;;14.02;;
59410;SDS011;45215;32.610;-115.482;2022-08-24T04:26:17;16.70;;;13.18;;
59410;SDS011;45215;32.610;-115.482;2022-08-24T04:28:45;58.22;;;13.10;;
59410;SDS011;45215;32.610;-115.482;2022-08-24T04:31:11;29.80;;;11.40;;
59410;SDS011;45215;32.610;-115.482;2022-08-24T04:33:39;23.02;;;10.60;;
59410;SDS011;45215;32.610;-115.482;2022-08-24T04:36:09;23.40;;;10.68;;
59410;SDS011;45215;32.610;-115.482;2022-08-24T04:38:36;14.63;;;9.32;;
59410;SDS011;45215;32.610;-115.482;2022-08-24T04:41:06;16.13;;;8.85;;
59410;SDS011;45215;32.610;-115.482;2022-08-24T04:43:34;11.52;;;8.35;;
59410;SDS011;45215;32.610;-115.482;2022-08-24T04:46:03;14.38;;;7.88;;
59410;SDS011;45215;32.610;-115.482;2022-08-24T04:48:31;8.98;;;7.50;;
59410;SDS011;45215;32.610;-115.482;2022-08-24T04:51:05;11.10;;;6.90;;
59410;SDS011;45215;32.610;-115.482;2022-08-24T04:53:33;8.38;;;7.18;;
59410;SDS011;45215;32.610;-115.482;2022-08-24T04:56:00;7.50;;;6.30;;
59410;SDS011;45215;32.610;-115.482;2022-08-24T04:58:27;8.80;;;6.22;;
59410;SDS011;45215;32.610;-115.482;2022-08-24T05:00:55;10.65;;;6.78;;
59410;SDS011;45215;32.610;-115.482;2022-08-24T05:03:21;13.93;;;8.02;;
59410;SDS011;45215;32.610;-115.482;2022-08-24T05:05:49;17.98;;;11.88;;
59410;SDS011;45215;32.610;-115.482;2022-08-24T05:08:16;36.42;;;23.85;;
59410;SDS011;45215;32.610;-115.482;2022-08-24T05:10:44;41.05;;;25.90;;
59410;SDS011;45215;32.610;-115.482;2022-08-24T05:13:12;47.55;;;30.77;;
59410;SDS011;45215;32.610;-115.482;2022-08-24T05:15:40;51.60;;;33.78;;
59410;SDS011;45215;32.610;-115.482;2022-08-24T05:18:08;69.70;;;43.20;;
59410;SDS011;45215;32.610;-115.482;2022-08-24T05:20:39;70.55;;;44.92;;
59410;SDS011;45215;32.610;-115.482;2022-08-24T05:23:06;74.53;;;46.20;;
59410;SDS011;45215;32.610;-115.482;2022-08-24T05:25:32;75.03;;;47.22;;
59410;SDS011;45215;32.610;-115.482;2022-08-24T05:27:59;79.65;;;51.00;;
59410;SDS011;45215;32.610;-115.482;2022-08-24T05:30:25;88.35;;;54.63;;
59410;SDS011;45215;32.610;-115.482;2022-08-24T05:32:52;84.97;;;53.22;;
59410;SDS011;45215;32.610;-115.482;2022-08-24T05:35:18;86.18;;;53.03;;
59410;SDS011;45215;32.610;-115.482;2022-08-24T05:37:44;117.32;;;64.78;;
59410;SDS011;45215;32.610;-115.482;2022-08-24T05:40:12;147.98;;;71.32;;
59410;SDS011;45215;32.610;-115.482;2022-08-24T05:42:40;176.60;;;80.13;;
59410;SDS011;45215;32.610;-115.482;2022-08-24T05:45:06;166.35;;;80.18;;
59410;SDS011;45215;32.610;-115.482;2022-08-24T05:47:33;174.93;;;80.03;;
59410;SDS011;45215;32.610;-115.482;2022-08-24T05:50:00;205.63;;;92.15;;
59410;SDS011;45215;32.610;-115.482;2022-08-24T05:52:27;204.63;;;90.65;;
59410;SDS011;45215;32.610;-115.482;2022-08-24T05:54:56;187.50;;;85.68;;
59410;SDS011;45215;32.610;-115.482;2022-08-24T05:57:24;184.50;;;82.43;;
59410;SDS011;45215;32.610;-115.482;2022-08-24T05:59:55;165.37;;;78.90;;
59410;SDS011;45215;32.610;-115.482;2022-08-24T06:02:21;154.57;;;75.90;;
59410;SDS011;45215;32.610;-115.482;2022-08-24T06:04:48;147.10;;;72.57;;
59410;SDS011;45215;32.610;-115.482;2022-08-24T06:07:14;140.27;;;71.65;;
59410;SDS011;45215;32.610;-115.482;2022-08-24T06:09:40;131.82;;;66.63;;
59410;SDS011;45215;32.610;-115.482;2022-08-24T06:12:07;130.07;;;65.75;;
59410;SDS011;45215;32.610;-115.482;2022-08-24T06:14:34;127.72;;;63.25;;
59410;SDS011;45215;32.610;-115.482;2022-08-24T06:17:02;116.20;;;61.45;;
59410;SDS011;45215;32.610;-115.482;2022-08-24T06:19:30;105.70;;;57.00;;
59410;SDS011;45215;32.610;-115.482;2022-08-24T06:21:57;103.57;;;56.00;;
59410;SDS011;45215;32.610;-115.482;2022-08-24T06:24:24;117.10;;;56.40;;
59410;SDS011;45215;32.610;-115.482;2022-08-24T06:27:10;96.57;;;52.90;;
59410;SDS011;45215;32.610;-115.482;2022-08-24T06:29:46;97.80;;;53.30;;
59410;SDS011;45215;32.610;-115.482;2022-08-24T06:32:23;93.18;;;53.85;;
59410;SDS011;45215;32.610;-115.482;2022-08-24T06:34:50;96.20;;;57.45;;
59410;SDS011;45215;32.610;-115.482;2022-08-24T06:37:19;91.72;;;55.63;;
59410;SDS011;45215;32.610;-115.482;2022-08-24T06:39:53;92.28;;;53.40;;
59410;SDS011;45215;32.610;-115.482;2022-08-24T06:42:23;88.90;;;52.22;;
59410;SDS011;45215;32.610;-115.482;2022-08-24T06:44:50;91.53;;;53.80;;
59410;SDS011;45215;32.610;-115.482;2022-08-24T06:47:17;84.97;;;53.63;;
59410;SDS011;45215;32.610;-115.482;2022-08-24T06:49:43;87.43;;;50.40;;
59410;SDS011;45215;32.610;-115.482;2022-08-24T06:52:10;82.50;;;50.58;;
59410;SDS011;45215;32.610;-115.482;2022-08-24T06:54:36;77.72;;;47.60;;
59410;SDS011;45215;32.610;-115.482;2022-08-24T06:57:03;75.65;;;48.40;;
59410;SDS011;45215;32.610;-115.482;2022-08-24T06:59:31;75.47;;;48.13;;
59410;SDS011;45215;32.610;-115.482;2022-08-24T07:01:57;71.22;;;45.85;;
59410;SDS011;45215;32.610;-115.482;2022-08-24T07:04:25;68.20;;;43.97;;
59410;SDS011;45215;32.610;-115.482;2022-08-24T07:06:52;65.35;;;42.58;;
59410;SDS011;45215;32.610;-115.482;2022-08-24T07:09:20;62.97;;;41.00;;
59410;SDS011;45215;32.610;-115.482;2022-08-24T07:11:49;63.17;;;41.15;;
59410;SDS011;45215;32.610;-115.482;2022-08-24T07:14:16;61.22;;;38.50;;
59410;SDS011;45215;32.610;-115.482;2022-08-24T07:16:43;58.55;;;37.55;;
59410;SDS011;45215;32.610;-115.482;2022-08-24T07:19:10;55.05;;;37.17;;
59410;SDS011;45215;32.610;-115.482;2022-08-24T07:21:36;56.58;;;37.78;;
59410;SDS011;45215;32.610;-115.482;2022-08-24T07:24:02;52.17;;;35.40;;
59410;SDS011;45215;32.610;-115.482;2022-08-24T07:26:29;46.95;;;32.85;;
59410;SDS011;45215;32.610;-115.482;2022-08-24T07:28:56;48.50;;;32.53;;
59410;SDS011;45215;32.610;-115.482;2022-08-24T07:31:29;48.75;;;32.05;;
59410;SDS011;45215;32.610;-115.482;2022-08-24T07:34:00;49.38;;;34.47;;
59410;SDS011;45215;32.610;-115.482;2022-08-24T07:36:27;57.08;;;40.70;;
59410;SDS011;45215;32.610;-115.482;2022-08-24T07:38:54;67.68;;;47.10;;
59410;SDS011;45215;32.610;-115.482;2022-08-24T07:41:22;73.40;;;49.20;;
59410;SDS011;45215;32.610;-115.482;2022-08-24T07:43:52;74.28;;;49.17;;
59410;SDS011;45215;32.610;-115.482;2022-08-24T07:46:20;68.57;;;47.05;;
59410;SDS011;45215;32.610;-115.482;2022-08-24T07:48:47;59.83;;;43.08;;
59410;SDS011;45215;32.610;-115.482;2022-08-24T07:51:15;60.30;;;42.03;;
59410;SDS011;45215;32.610;-115.482;2022-08-24T07:53:42;104.40;;;64.55;;
59410;SDS011;45215;32.610;-115.482;2022-08-24T07:56:08;182.25;;;98.00;;
59410;SDS011;45215;32.610;-115.482;2022-08-24T07:58:35;210.77;;;118.72;;
59410;SDS011;45215;32.610;-115.482;2022-08-24T08:01:02;200.15;;;110.32;;
59410;SDS011;45215;32.610;-115.482;2022-08-24T08:03:29;193.63;;;108.05;;
59410;SDS011;45215;32.610;-115.482;2022-08-24T08:06:01;177.68;;;98.70;;
59410;SDS011;45215;32.610;-115.482;2022-08-24T08:08:29;163.53;;;95.10;;
59410;SDS011;45215;32.610;-115.482;2022-08-24T08:10:57;155.82;;;90.78;;
59410;SDS011;45215;32.610;-115.482;2022-08-24T08:13:23;150.10;;;85.25;;
59410;SDS011;45215;32.610;-115.482;2022-08-24T08:15:49;140.23;;;80.88;;
59410;SDS011;45215;32.610;-115.482;2022-08-24T08:18:17;135.10;;;76.28;;
59410;SDS011;45215;32.610;-115.482;2022-08-24T08:20:43;124.57;;;71.20;;
59410;SDS011;45215;32.610;-115.482;2022-08-24T08:23:10;117.97;;;67.68;;
59410;SDS011;45215;32.610;-115.482;2022-08-24T08:25:54;109.50;;;63.83;;
59410;SDS011;45215;32.610;-115.482;2022-08-24T08:28:26;103.68;;;60.42;;
59410;SDS011;45215;32.610;-115.482;2022-08-24T08:31:00;96.72;;;55.83;;
59410;SDS011;45215;32.610;-115.482;2022-08-24T08:33:27;94.65;;;56.30;;
59410;SDS011;45215;32.610;-115.482;2022-08-24T08:35:56;87.35;;;52.35;;
59410;SDS011;45215;32.610;-115.482;2022-08-24T08:38:34;85.50;;;50.15;;
59410;SDS011;45215;32.610;-115.482;2022-08-24T08:44:16;74.75;;;44.47;;
59410;SDS011;45215;32.610;-115.482;2022-08-24T08:55:51;58.80;;;36.15;;
59410;SDS011;45215;32.610;-115.482;2022-08-24T09:06:34;50.20;;;31.02;;
59410;SDS011;45215;32.610;-115.482;2022-08-24T09:22:46;34.85;;;22.35;;
59410;SDS011;45215;32.610;-115.482;2022-08-24T09:25:23;35.67;;;22.10;;
59410;SDS011;45215;32.610;-115.482;2022-08-24T09:30:56;30.02;;;19.40;;
59410;SDS011;45215;32.610;-115.482;2022-08-24T09:36:47;26.92;;;18.25;;
59410;SDS011;45215;32.610;-115.482;2022-08-24T09:39:29;25.67;;;17.58;;
59410;SDS011;45215;32.610;-115.482;2022-08-24T09:45:21;23.23;;;15.57;;
59410;SDS011;45215;32.610;-115.482;2022-08-24T09:53:36;21.70;;;14.75;;
59410;SDS011;45215;32.610;-115.482;2022-08-24T10:04:49;17.92;;;12.30;;
59410;SDS011;45215;32.610;-115.482;2022-08-24T10:16:13;39.35;;;29.80;;
59410;SDS011;45215;32.610;-115.482;2022-08-24T10:23:50;32.30;;;24.17;;
59410;SDS011;45215;32.610;-115.482;2022-08-24T10:35:16;24.67;;;19.30;;
59410;SDS011;45215;32.610;-115.482;2022-08-24T10:46:58;20.50;;;15.63;;
59410;SDS011;45215;32.610;-115.482;2022-08-24T11:00:25;17.33;;;13.18;;
59410;SDS011;45215;32.610;-115.482;2022-08-24T11:05:35;14.43;;;11.25;;
59410;SDS011;45215;32.610;-115.482;2022-08-24T11:08:11;15.60;;;11.90;;
59410;SDS011;45215;32.610;-115.482;2022-08-24T11:11:03;14.07;;;11.15;;
59410;SDS011;45215;32.610;-115.482;2022-08-24T11:13:35;13.48;;;10.40;;
59410;SDS011;45215;32.610;-115.482;2022-08-24T11:16:04;13.15;;;10.18;;
59410;SDS011;45215;32.610;-115.482;2022-08-24T11:18:47;11.80;;;9.32;;
59410;SDS011;45215;32.610;-115.482;2022-08-24T11:21:30;12.60;;;9.63;;
59410;SDS011;45215;32.610;-115.482;2022-08-24T11:29:12;9.98;;;8.13;;
59410;SDS011;45215;32.610;-115.482;2022-08-24T11:31:39;10.20;;;8.30;;
59410;SDS011;45215;32.610;-115.482;2022-08-24T11:34:15;10.00;;;7.93;;
59410;SDS011;45215;32.610;-115.482;2022-08-24T11:36:44;10.07;;;7.40;;
59410;SDS011;45215;32.610;-115.482;2022-08-24T11:39:20;8.80;;;7.25;;
59410;SDS011;45215;32.610;-115.482;2022-08-24T11:42:13;8.45;;;6.85;;
59410;SDS011;45215;32.610;-115.482;2022-08-24T11:45:03;9.05;;;6.88;;
59410;SDS011;45215;32.610;-115.482;2022-08-24T11:58:51;7.43;;;5.28;;
59410;SDS011;45215;32.610;-115.482;2022-08-24T12:09:12;6.85;;;4.88;;
59410;SDS011;45215;32.610;-115.482;2022-08-24T12:14:46;6.60;;;4.85;;
59410;SDS011;45215;32.610;-115.482;2022-08-24T12:17:36;4.97;;;4.18;;
59410;SDS011;45215;32.610;-115.482;2022-08-24T12:20:23;5.50;;;3.80;;
59410;SDS011;45215;32.610;-115.482;2022-08-24T12:22:58;4.88;;;4.10;;
59410;SDS011;45215;32.610;-115.482;2022-08-24T12:25:30;4.85;;;4.00;;
59410;SDS011;45215;32.610;-115.482;2022-08-24T12:28:20;4.95;;;4.00;;
59410;SDS011;45215;32.610;-115.482;2022-08-24T12:30:53;4.90;;;3.95;;
59410;SDS011;45215;32.610;-115.482;2022-08-24T12:33:30;5.15;;;4.05;;
59410;SDS011;45215;32.610;-115.482;2022-08-24T12:36:02;5.13;;;3.60;;
59410;SDS011;45215;32.610;-115.482;2022-08-24T12:38:39;4.82;;;3.55;;
59410;SDS011;45215;32.610;-115.482;2022-08-24T12:41:19;4.68;;;3.50;;
59410;SDS011;45215;32.610;-115.482;2022-08-24T12:44:09;4.13;;;3.38;;
59410;SDS011;45215;32.610;-115.482;2022-08-24T12:46:39;4.25;;;3.22;;
59410;SDS011;45215;32.610;-115.482;2022-08-24T12:49:31;3.78;;;3.15;;
59410;SDS011;45215;32.610;-115.482;2022-08-24T12:52:16;4.22;;;3.00;;
59410;SDS011;45215;32.610;-115.482;2022-08-24T12:55:47;4.00;;;2.97;;
59410;SDS011;45215;32.610;-115.482;2022-08-24T12:57:59;3.40;;;3.00;;
59410;SDS011;45215;32.610;-115.482;2022-08-24T13:00:46;3.55;;;2.85;;
59410;SDS011;45215;32.610;-115.482;2022-08-24T13:03:30;3.92;;;3.08;;
59410;SDS011;45215;32.610;-115.482;2022-08-24T13:05:57;4.05;;;2.80;;
59410;SDS011;45215;32.610;-115.482;2022-08-24T13:11:07;3.72;;;2.88;;
59410;SDS011;45215;32.610;-115.482;2022-08-24T13:13:39;3.13;;;2.30;;
59410;SDS011;45215;32.610;-115.482;2022-08-24T13:16:06;3.35;;;2.38;;
59410;SDS011;45215;32.610;-115.482;2022-08-24T13:18:46;3.00;;;2.40;;
59410;SDS011;45215;32.610;-115.482;2022-08-24T13:26:55;2.60;;;2.15;;
59410;SDS011;45215;32.610;-115.482;2022-08-24T13:29:24;3.20;;;2.20;;
59410;SDS011;45215;32.610;-115.482;2022-08-24T13:31:54;3.22;;;2.35;;
59410;SDS011;45215;32.610;-115.482;2022-08-24T13:34:38;3.28;;;1.98;;
59410;SDS011;45215;32.610;-115.482;2022-08-24T13:37:13;2.55;;;2.10;;
59410;SDS011;45215;32.610;-115.482;2022-08-24T13:51:28;3.13;;;2.10;;
59410;SDS011;45215;32.610;-115.482;2022-08-24T13:56:44;3.03;;;1.85;;
59410;SDS011;45215;32.610;-115.482;2022-08-24T14:02:34;2.53;;;1.73;;
59410;SDS011;45215;32.610;-115.482;2022-08-24T14:16:09;1.92;;;1.60;;
59410;SDS011;45215;32.610;-115.482;2022-08-24T14:19:11;1.73;;;1.48;;
59410;SDS011;45215;32.610;-115.482;2022-08-24T14:21:44;2.30;;;1.55;;
59410;SDS011;45215;32.610;-115.482;2022-08-24T14:24:27;2.33;;;1.38;;
59410;SDS011;45215;32.610;-115.482;2022-08-24T14:27:01;3.15;;;1.50;;
59410;SDS011;45215;32.610;-115.482;2022-08-24T14:29:34;1.60;;;1.50;;
59410;SDS011;45215;32.610;-115.482;2022-08-24T14:37:23;1.75;;;1.30;;
59410;SDS011;45215;32.610;-115.482;2022-08-24T14:48:27;2.00;;;1.55;;
59410;SDS011;45215;32.610;-115.482;2022-08-24T14:54:01;1.80;;;1.23;;
59410;SDS011;45215;32.610;-115.482;2022-08-24T15:05:28;2.83;;;1.27;;
59410;SDS011;45215;32.610;-115.482;2022-08-24T15:07:59;1.52;;;1.20;;
59410;SDS011;45215;32.610;-115.482;2022-08-24T15:10:33;1.98;;;1.23;;
59410;SDS011;45215;32.610;-115.482;2022-08-24T15:16:09;1.83;;;1.30;;
59410;SDS011;45215;32.610;-115.482;2022-08-24T15:18:47;1.48;;;1.10;;
59410;SDS011;45215;32.610;-115.482;2022-08-24T15:21:35;1.52;;;1.10;;
59410;SDS011;45215;32.610;-115.482;2022-08-24T15:29:54;1.10;;;1.00;;
59410;SDS011;45215;32.610;-115.482;2022-08-24T15:32:23;2.05;;;1.10;;
59410;SDS011;45215;32.610;-115.482;2022-08-24T15:35:03;2.55;;;1.30;;
59410;SDS011;45215;32.610;-115.482;2022-08-24T15:37:34;1.48;;;1.13;;
59410;SDS011;45215;32.610;-115.482;2022-08-24T15:40:04;1.77;;;1.10;;
59410;SDS011;45215;32.610;-115.482;2022-08-24T15:42:41;1.65;;;1.20;;
59410;SDS011;45215;32.610;-115.482;2022-08-24T15:45:07;1.40;;;1.20;;
59410;SDS011;45215;32.610;-115.482;2022-08-24T15:47:36;1.40;;;1.30;;
59410;SDS011;45215;32.610;-115.482;2022-08-24T15:52:47;1.20;;;1.10;;
59410;SDS011;45215;32.610;-115.482;2022-08-24T15:55:31;1.52;;;1.10;;
59410;SDS011;45215;32.610;-115.482;2022-08-24T16:01:01;1.42;;;1.10;;
59410;SDS011;45215;32.610;-115.482;2022-08-24T16:04:11;2.85;;;1.30;;
59410;SDS011;45215;32.610;-115.482;2022-08-24T16:12:01;1.58;;;1.10;;
59410;SDS011;45215;32.610;-115.482;2022-08-24T16:14:39;2.20;;;1.00;;
59410;SDS011;45215;32.610;-115.482;2022-08-24T16:19:52;1.88;;;1.10;;
59410;SDS011;45215;32.610;-115.482;2022-08-24T16:22:55;2.25;;;1.00;;
59410;SDS011;45215;32.610;-115.482;2022-08-24T16:25:29;2.60;;;0.98;;
59410;SDS011;45215;32.610;-115.482;2022-08-24T16:27:59;1.00;;;0.90;;
59410;SDS011;45215;32.610;-115.482;2022-08-24T16:31:02;1.08;;;0.90;;
59410;SDS011;45215;32.610;-115.482;2022-08-24T16:35:56;2.67;;;1.48;;
59410;SDS011;45215;32.610;-115.482;2022-08-24T16:38:24;1.23;;;0.93;;
59410;SDS011;45215;32.610;-115.482;2022-08-24T16:40:51;1.10;;;0.95;;
59410;SDS011;45215;32.610;-115.482;2022-08-24T16:43:17;1.25;;;1.15;;
59410;SDS011;45215;32.610;-115.482;2022-08-24T16:45:44;1.10;;;1.00;;
59410;SDS011;45215;32.610;-115.482;2022-08-24T16:48:11;1.10;;;1.00;;
59410;SDS011;45215;32.610;-115.482;2022-08-24T16:50:37;1.52;;;0.85;;
59410;SDS011;45215;32.610;-115.482;2022-08-24T16:53:03;1.17;;;1.00;;
59410;SDS011;45215;32.610;-115.482;2022-08-24T16:55:30;1.55;;;0.93;;
59410;SDS011;45215;32.610;-115.482;2022-08-24T16:57:56;1.42;;;0.90;;
59410;SDS011;45215;32.610;-115.482;2022-08-24T17:00:25;1.27;;;0.90;;
59410;SDS011;45215;32.610;-115.482;2022-08-24T17:02:52;2.25;;;1.00;;
59410;SDS011;45215;32.610;-115.482;2022-08-24T17:05:19;1.98;;;1.00;;
59410;SDS011;45215;32.610;-115.482;2022-08-24T17:07:46;0.80;;;0.80;;
59410;SDS011;45215;32.610;-115.482;2022-08-24T17:10:15;2.08;;;0.95;;
59410;SDS011;45215;32.610;-115.482;2022-08-24T17:12:43;2.75;;;0.93;;
59410;SDS011;45215;32.610;-115.482;2022-08-24T17:15:10;0.85;;;0.85;;
59410;SDS011;45215;32.610;-115.482;2022-08-24T17:17:38;1.48;;;0.98;;
59410;SDS011;45215;32.610;-115.482;2022-08-24T17:20:06;1.25;;;0.98;;
59410;SDS011;45215;32.610;-115.482;2022-08-24T17:22:35;1.10;;;0.82;;
59410;SDS011;45215;32.610;-115.482;2022-08-24T17:25:02;1.00;;;0.90;;
59410;SDS011;45215;32.610;-115.482;2022-08-24T17:27:31;1.73;;;1.08;;
59410;SDS011;45215;32.610;-115.482;2022-08-24T17:29:58;2.22;;;0.80;;
59410;SDS011;45215;32.610;-115.482;2022-08-24T17:32:26;1.83;;;1.00;;
59410;SDS011;45215;32.610;-115.482;2022-08-24T17:34:52;1.10;;;0.90;;
59410;SDS011;45215;32.610;-115.482;2022-08-24T17:37:18;3.53;;;1.00;;
59410;SDS011;45215;32.610;-115.482;2022-08-24T17:39:45;2.90;;;1.20;;
59410;SDS011;45215;32.610;-115.482;2022-08-24T17:42:21;8.50;;;7.60;;
59410;SDS011;45215;32.610;-115.482;2022-08-24T17:44:47;17.15;;;10.98;;
59410;SDS011;45215;32.610;-115.482;2022-08-24T17:47:14;35.78;;;19.33;;
59410;SDS011;45215;32.610;-115.482;2022-08-24T17:49:41;36.08;;;20.98;;
59410;SDS011;45215;32.610;-115.482;2022-08-24T17:52:08;33.45;;;20.98;;
59410;SDS011;45215;32.610;-115.482;2022-08-24T17:54:34;31.27;;;19.20;;
59410;SDS011;45215;32.610;-115.482;2022-08-24T17:57:00;29.90;;;18.50;;
59410;SDS011;45215;32.610;-115.482;2022-08-24T17:59:28;24.90;;;16.38;;
59410;SDS011;45215;32.610;-115.482;2022-08-24T18:04:31;23.42;;;13.63;;